IE-0024 weather

Killamaster Airstrip
County Carlow, Ireland

Public forecast

Using degrees Celsius for public forecast. Weather courtesy of forecast.io.

Closest aviation weather report (METAR) to Killamaster Airstrip

Closest report is Casement Air Base, 29.2 nm (54.0 km) NNE. Retrieved 2020/07/04 15:00 UTC (51 minutes ago):

EIME 041500Z 25012KT 9999 SCT017 BKN022 18/15 Q1005

Closest aviation forecast (TAF) to Killamaster Airstrip

Closest forecast is Dublin Airport, 38.6 nm (71.4 km) NNE. Retrieved 2020/07/04 12:11 UTC (4 hours ago):

TAF EIDW 041100Z 0412/0512 25010KT 9999 SCT010 BKN020 TEMPO 0412/0501 5000 -RADZ BKN010 BECMG 0418/0420 22014KT BECMG 0420/0422 22020G32KT PROB30 TEMPO 0422/0501 24025G43KT 3000 RA BKN005 BECMG 0500/0502 26020G33KT TEMPO 0502/0512 26024G40KT